Cameron, South Carolina
Current Conditions -  °F | °C
As of 3:53 AM on Friday 28 Nov 2014 (Local Time) from KOGB Reporting Station
Clear Clear  
Wind Chill: 34°   Ceiling: Unl
Heat Index: 34°   Visibility: 10mi
Dew Point: 28°   Wind: 0mph
Humidity: 79%   Direction: NA
Pressure: 30.33"   Gusts: NA
Location:  33.56°N, 80.71°W
Report Text: KOGB 280853Z AUTO 00000KT 10SM CLR 01/M02 A3033 RMK AO2 SLP272 T00111022 51009
Loading
Personal Weather Stations






























Interactive Weather Map New forecast layout! Learn more

10-Day Weather Forecast

Advertisements
Track Severe Weather on mobile